Time;durP1;ratioP1;P1;durP2;ratioP2;P2;SDS_P1;SDS_P2;PMS_P1;PMS_P2;Temp;Humidity;BMP_temperature;BMP_pressure;BME280_temperature;BME280_humidity;BME280_pressure;Samples;Min_cycle;Max_cycle;Signal;HPM_P1;HPM_P2
2022/04/25 00:00:55;;;;;;;0.45;0.25;;;8.10;99.90;;;;;;5049947;28;20122;-67
2022/04/25 00:03:21;;;;;;;0.85;0.30;;;8.10;99.90;;;;;;5043746;28;20119;-67
2022/04/25 00:05:46;;;;;;;1.02;0.32;;;8.20;99.90;;;;;;5042147;28;20017;-67
2022/04/25 00:08:12;;;;;;;0.50;0.30;;;8.20;99.90;;;;;;5044903;28;20049;-67
2022/04/25 00:10:38;;;;;;;0.43;0.20;;;8.30;99.90;;;;;;5041864;28;20439;-67
2022/04/25 00:13:03;;;;;;;0.55;0.30;;;8.30;99.90;;;;;;5043649;28;20096;-67
2022/04/25 00:15:29;;;;;;;0.90;0.30;;;8.30;99.90;;;;;;5025878;28;20037;-66
2022/04/25 00:17:55;;;;;;;0.73;0.30;;;8.30;99.90;;;;;;5047064;28;20021;-67
2022/04/25 00:20:21;;;;;;;0.90;0.32;;;8.30;99.90;;;;;;5048839;28;20461;-67
2022/04/25 00:22:46;;;;;;;1.20;0.38;;;8.30;99.90;;;;;;5045666;28;20053;-66
2022/04/25 00:25:12;;;;;;;0.82;0.30;;;8.40;99.90;;;;;;5043236;28;20025;-66
2022/04/25 00:27:39;;;;;;;1.25;0.40;;;8.40;99.90;;;;;;5043459;28;20021;-66
2022/04/25 00:30:05;;;;;;;0.98;0.30;;;8.30;99.90;;;;;;5047399;28;20089;-67
2022/04/25 00:32:31;;;;;;;0.95;0.30;;;8.40;99.90;;;;;;5045743;28;20033;-66
2022/04/25 00:34:57;;;;;;;1.45;0.40;;;8.30;99.90;;;;;;5037280;28;20439;-66
2022/04/25 00:37:22;;;;;;;0.95;0.35;;;8.30;99.90;;;;;;5042861;28;20465;-66
2022/04/25 00:39:48;;;;;;;0.95;0.30;;;8.30;99.90;;;;;;5044331;28;20037;-66
2022/04/25 00:42:14;;;;;;;1.20;0.75;;;8.40;99.90;;;;;;5057208;28;20043;-65
2022/04/25 00:44:41;;;;;;;1.23;0.40;;;8.40;99.90;;;;;;5043632;28;20056;-65
2022/04/25 00:47:09;;;;;;;1.38;0.82;;;8.40;99.90;;;;;;5044728;28;20056;-65
2022/04/25 00:49:35;;;;;;;1.02;0.40;;;8.40;99.90;;;;;;5048127;28;20056;-64
2022/04/25 00:52:01;;;;;;;0.77;0.30;;;8.30;99.90;;;;;;5045993;28;20033;-64
2022/04/25 00:54:27;;;;;;;1.45;0.60;;;8.40;99.90;;;;;;5043328;28;20049;-64
2022/04/25 00:56:54;;;;;;;1.02;0.50;;;8.40;99.90;;;;;;5038409;28;20033;-66
2022/04/25 00:59:24;;;;;;;0.57;0.30;;;8.30;99.90;;;;;;5046725;28;20038;-66
2022/04/25 01:01:52;;;;;;;0.52;0.52;;;8.30;99.90;;;;;;5041180;28;20037;-66
2022/04/25 01:04:18;;;;;;;1.42;0.60;;;8.20;99.90;;;;;;5047162;28;20500;-64
2022/04/25 01:06:44;;;;;;;1.02;0.40;;;8.20;99.90;;;;;;5041524;28;20033;-64
2022/04/25 01:09:09;;;;;;;1.23;0.82;;;8.20;99.90;;;;;;5041671;28;21297;-66
2022/04/25 01:11:35;;;;;;;0.85;0.30;;;8.20;99.90;;;;;;5049455;28;20036;-64
2022/04/25 01:14:20;;;;;;;0.73;0.30;;;8.20;99.90;;;;;;5045159;28;20054;-65
2022/04/25 01:16:50;;;;;;;1.17;0.40;;;8.20;99.90;;;;;;5045432;28;20079;-64
2022/04/25 01:19:16;;;;;;;1.00;0.60;;;8.20;99.90;;;;;;5041291;28;20401;-65
2022/04/25 01:21:44;;;;;;;0.82;0.30;;;8.20;99.90;;;;;;5044803;28;20044;-64
2022/04/25 01:29:39;;;;;;;0.50;0.30;;;8.20;99.90;;;;;;5043314;28;20082;-64
2022/04/25 01:32:06;;;;;;;0.38;0.30;;;8.10;99.90;;;;;;5041637;28;20450;-65
2022/04/25 01:34:38;;;;;;;0.68;0.30;;;8.10;99.90;;;;;;5041428;28;20043;-64
2022/04/25 01:37:08;;;;;;;0.35;0.28;;;8.10;99.90;;;;;;5041244;28;20032;-64
2022/04/25 01:39:35;;;;;;;0.63;0.30;;;8.10;99.90;;;;;;5047929;28;20064;-64
2022/04/25 01:42:01;;;;;;;1.15;0.32;;;8.10;99.90;;;;;;5041515;28;20060;-65
2022/04/25 01:44:27;;;;;;;0.60;0.40;;;8.00;99.90;;;;;;5038831;28;20021;-65
2022/04/25 01:46:53;;;;;;;0.50;0.30;;;8.00;99.90;;;;;;5043412;28;20374;-65
2022/04/25 01:49:18;;;;;;;1.20;0.40;;;8.00;99.90;;;;;;5042933;28;20041;-65
2022/04/25 01:51:45;;;;;;;1.13;0.38;;;8.00;99.90;;;;;;5045234;28;20043;-65
2022/04/25 01:54:10;;;;;;;0.77;0.30;;;7.90;99.90;;;;;;5046765;28;20044;-65
2022/04/25 01:56:36;;;;;;;1.83;0.55;;;7.90;99.90;;;;;;5042486;28;20025;-65
2022/04/25 01:59:02;;;;;;;0.88;0.45;;;7.90;99.90;;;;;;5043433;28;20057;-65
2022/04/25 02:01:27;;;;;;;0.70;0.30;;;7.90;99.90;;;;;;5044363;28;20050;-65
2022/04/25 02:03:53;;;;;;;1.30;0.77;;;7.80;99.90;;;;;;5049659;28;20072;-66
2022/04/25 02:06:18;;;;;;;1.27;0.40;;;7.80;99.90;;;;;;5045868;28;20043;-66
2022/04/25 02:08:44;;;;;;;1.17;0.40;;;7.80;99.90;;;;;;5046628;28;20039;-65
2022/04/25 02:11:19;;;;;;;0.75;0.30;;;7.80;99.90;;;;;;5046019;28;20052;-66
2022/04/25 02:13:45;;;;;;;0.80;0.30;;;7.70;99.90;;;;;;5051796;28;20026;-66
2022/04/25 02:16:11;;;;;;;1.52;0.50;;;7.70;99.90;;;;;;5050291;28;20029;-66
2022/04/25 02:18:39;;;;;;;1.48;0.80;;;7.60;99.90;;;;;;5060499;28;20049;-66
2022/04/25 02:21:05;;;;;;;1.00;0.35;;;7.60;99.90;;;;;;5047620;28;20040;-66
2022/04/25 02:23:31;;;;;;;1.60;0.40;;;7.60;99.90;;;;;;5050831;28;20025;-66
2022/04/25 02:25:56;;;;;;;1.60;0.40;;;7.60;99.90;;;;;;5052345;28;20032;-65
2022/04/25 02:28:22;;;;;;;0.38;0.30;;;7.50;99.90;;;;;;5043991;28;20144;-66
2022/04/25 02:30:49;;;;;;;1.23;0.50;;;7.50;99.90;;;;;;5048753;28;20079;-66
2022/04/25 02:33:15;;;;;;;1.23;0.60;;;7.50;99.90;;;;;;5052430;28;20519;-66
2022/04/25 02:35:41;;;;;;;1.25;0.50;;;7.40;99.90;;;;;;5049649;28;20028;-66
2022/04/25 02:38:06;;;;;;;0.20;0.20;;;7.40;99.90;;;;;;5046475;28;20025;-66
2022/04/25 02:40:32;;;;;;;1.10;0.40;;;7.50;99.90;;;;;;5046710;28;20055;-66
2022/04/25 02:42:58;;;;;;;1.08;0.35;;;7.50;99.90;;;;;;5049884;28;20033;-66
2022/04/25 02:45:23;;;;;;;0.52;0.30;;;7.50;99.90;;;;;;5043507;28;20017;-66
2022/04/25 02:47:49;;;;;;;0.35;0.20;;;7.50;99.90;;;;;;5046113;28;20047;-66
2022/04/25 02:50:15;;;;;;;1.00;0.30;;;7.50;99.90;;;;;;5045316;28;20068;-65
2022/04/25 02:52:41;;;;;;;0.95;0.30;;;7.50;99.90;;;;;;5049158;28;20060;-65
2022/04/25 02:55:07;;;;;;;1.42;0.77;;;7.50;99.90;;;;;;5049453;28;20043;-66
2022/04/25 02:57:33;;;;;;;0.88;0.30;;;7.60;99.90;;;;;;5043737;28;20029;-66
2022/04/25 02:59:59;;;;;;;1.05;0.50;;;7.60;99.90;;;;;;5049751;28;20044;-64
2022/04/25 03:02:24;;;;;;;1.08;0.40;;;7.60;99.90;;;;;;5043140;28;20052;-65
2022/04/25 03:04:50;;;;;;;1.45;0.85;;;7.60;99.90;;;;;;5059037;28;20052;-65
2022/04/25 03:07:16;;;;;;;1.23;0.40;;;7.60;99.90;;;;;;5042062;28;20076;-65
2022/04/25 03:09:41;;;;;;;1.27;0.43;;;7.60;99.90;;;;;;5054687;28;20036;-65
2022/04/25 03:12:09;;;;;;;0.95;0.30;;;7.60;99.90;;;;;;5046849;28;20045;-65
2022/04/25 03:14:35;;;;;;;0.38;0.30;;;7.60;99.90;;;;;;5043312;28;20151;-65
2022/04/25 03:17:02;;;;;;;0.75;0.30;;;7.60;99.90;;;;;;5047343;28;20056;-65
2022/04/25 03:19:27;;;;;;;0.75;0.30;;;7.50;99.90;;;;;;5044907;28;20044;-66
2022/04/25 03:21:53;;;;;;;0.77;0.30;;;7.60;99.90;;;;;;5061948;28;20507;-65
2022/04/25 03:24:18;;;;;;;0.85;0.30;;;7.60;99.90;;;;;;5044909;28;20366;-65
2022/04/25 03:26:44;;;;;;;0.88;0.30;;;7.60;99.90;;;;;;5029257;28;20267;-65
2022/04/25 03:29:11;;;;;;;1.30;0.40;;;7.50;99.90;;;;;;5046812;28;20037;-65
2022/04/25 03:31:37;;;;;;;1.27;0.40;;;7.50;99.90;;;;;;5046131;28;21054;-64
2022/04/25 03:34:03;;;;;;;0.73;0.30;;;7.50;99.90;;;;;;5043484;28;20095;-65
2022/04/25 03:36:30;;;;;;;0.43;0.22;;;7.60;99.90;;;;;;5044180;28;20033;-65
2022/04/25 03:38:55;;;;;;;1.08;0.30;;;7.50;99.90;;;;;;5049348;28;20040;-66
2022/04/25 03:41:21;;;;;;;1.48;0.80;;;7.50;99.90;;;;;;5050138;28;20746;-65
2022/04/25 03:43:47;;;;;;;1.13;0.30;;;7.50;99.90;;;;;;5041811;28;20033;-65
2022/04/25 03:46:13;;;;;;;1.02;0.30;;;7.50;99.90;;;;;;5051107;28;20036;-65
2022/04/25 03:48:44;;;;;;;1.48;0.50;;;7.50;99.90;;;;;;5042117;28;20040;-66
2022/04/25 03:51:09;;;;;;;2.80;1.07;;;7.40;99.90;;;;;;5046349;28;20033;-65
2022/04/25 03:53:35;;;;;;;0.80;0.30;;;7.40;99.90;;;;;;5045816;28;20022;-65
2022/04/25 03:58:45;;;;;;;1.40;0.82;;;7.40;99.90;;;;;;5046941;28;20075;-66
2022/04/25 04:01:13;;;;;;;0.45;0.20;;;7.40;99.90;;;;;;5045453;28;20057;-66
2022/04/25 04:03:39;;;;;;;0.52;0.30;;;7.40;99.90;;;;;;5045893;28;20046;-66
2022/04/25 04:06:05;;;;;;;0.88;0.30;;;7.40;99.90;;;;;;5039893;28;20042;-66
2022/04/25 04:08:31;;;;;;;1.13;0.50;;;7.50;99.90;;;;;;5046760;28;20093;-66
2022/04/25 04:10:57;;;;;;;0.43;0.28;;;7.50;99.90;;;;;;5046458;28;20057;-65
2022/04/25 04:13:24;;;;;;;1.65;0.40;;;7.50;99.90;;;;;;5045518;28;20171;-65
2022/04/25 04:15:50;;;;;;;1.08;0.50;;;7.50;99.90;;;;;;5026735;28;20025;-66
2022/04/25 04:18:16;;;;;;;1.75;0.40;;;7.50;99.90;;;;;;5045403;28;20045;-65
2022/04/25 04:20:41;;;;;;;1.10;0.40;;;7.50;99.90;;;;;;5048306;28;20025;-66
2022/04/25 04:23:07;;;;;;;0.55;0.30;;;7.50;99.90;;;;;;5039155;28;20029;-65
2022/04/25 04:25:33;;;;;;;0.20;0.20;;;7.50;99.90;;;;;;5053035;28;20036;-65
2022/04/25 04:27:59;;;;;;;0.95;0.30;;;7.60;99.90;;;;;;5042738;28;20029;-65
2022/04/25 04:30:25;;;;;;;0.88;0.30;;;7.60;99.90;;;;;;5046504;28;20028;-65
2022/04/25 04:32:52;;;;;;;1.08;0.68;;;7.50;99.90;;;;;;5043430;28;20020;-65
2022/04/25 04:38:05;;;;;;;0.82;0.30;;;7.60;99.90;;;;;;5045851;28;20445;-65
2022/04/25 04:40:31;;;;;;;0.88;0.30;;;7.60;99.90;;;;;;5049042;28;20032;-65
2022/04/25 04:42:57;;;;;;;0.85;0.30;;;7.60;99.90;;;;;;5046145;28;20065;-66
2022/04/25 04:45:24;;;;;;;0.68;0.30;;;7.60;99.90;;;;;;5051012;28;20101;-65
2022/04/25 04:47:50;;;;;;;0.80;0.30;;;7.60;99.90;;;;;;5041948;28;20060;-66
2022/04/25 04:50:16;;;;;;;1.25;0.70;;;7.70;99.90;;;;;;5045183;28;20041;-65
2022/04/25 04:52:48;;;;;;;0.88;0.30;;;7.70;99.90;;;;;;5045506;28;20021;-66
2022/04/25 04:55:14;;;;;;;0.57;0.30;;;7.70;99.90;;;;;;5044833;28;20029;-65
2022/04/25 04:57:41;;;;;;;1.15;0.32;;;7.70;99.90;;;;;;5048101;28;20094;-65
2022/04/25 05:00:15;;;;;;;1.27;0.40;;;7.80;99.90;;;;;;5048944;28;20116;-65
2022/04/25 05:02:45;;;;;;;1.90;0.47;;;7.70;99.90;;;;;;5043715;28;20049;-65
2022/04/25 05:05:12;;;;;;;0.45;0.30;;;7.70;99.90;;;;;;5045410;28;20120;-65
2022/04/25 05:07:38;;;;;;;0.93;0.30;;;7.80;99.90;;;;;;5047727;28;20096;-65
2022/04/25 05:10:06;;;;;;;0.90;0.30;;;7.80;99.90;;;;;;5046589;28;20077;-66
2022/04/25 05:12:43;;;;;;;0.93;0.32;;;7.80;99.90;;;;;;5045692;28;20052;-65
2022/04/25 05:15:13;;;;;;;1.33;0.43;;;7.80;99.90;;;;;;5043916;28;20029;-65
2022/04/25 05:17:41;;;;;;;0.88;0.30;;;7.80;99.90;;;;;;5045345;28;20033;-65
2022/04/25 05:20:09;;;;;;;0.60;0.30;;;7.80;99.90;;;;;;5043826;28;20078;-65
2022/04/25 05:22:37;;;;;;;1.17;0.40;;;7.80;99.90;;;;;;5043132;28;20070;-66
2022/04/25 05:25:03;;;;;;;0.98;0.30;;;7.80;99.90;;;;;;5045063;28;20041;-65
2022/04/25 05:27:29;;;;;;;0.80;0.30;;;7.80;99.90;;;;;;5044632;28;20036;-65
2022/04/25 05:29:54;;;;;;;0.70;0.30;;;7.80;99.90;;;;;;5044699;28;20038;-66
2022/04/25 05:32:20;;;;;;;0.95;0.30;;;7.90;99.90;;;;;;5047162;28;20025;-66
2022/04/25 05:34:45;;;;;;;0.52;0.30;;;7.80;99.90;;;;;;5047659;28;20119;-66
2022/04/25 05:37:11;;;;;;;0.38;0.20;;;7.90;99.90;;;;;;5051543;28;20117;-65
2022/04/25 05:39:37;;;;;;;0.28;0.20;;;7.90;99.90;;;;;;5049812;28;20057;-65
2022/04/25 05:42:03;;;;;;;2.83;0.55;;;7.90;99.90;;;;;;5049677;28;20041;-65
2022/04/25 05:44:29;;;;;;;0.85;0.30;;;7.90;99.90;;;;;;5042309;28;20512;-65
2022/04/25 05:46:56;;;;;;;0.95;0.30;;;8.00;99.90;;;;;;5051754;28;20047;-65
2022/04/25 05:52:08;;;;;;;0.43;0.25;;;7.90;99.90;;;;;;5048369;28;20049;-66
2022/04/25 05:54:34;;;;;;;1.17;0.45;;;7.90;99.90;;;;;;5052191;28;20393;-66
2022/04/25 05:57:00;;;;;;;0.93;0.60;;;7.90;99.90;;;;;;5044658;28;20037;-66
2022/04/25 05:59:27;;;;;;;0.60;0.35;;;8.00;99.90;;;;;;5045767;28;20092;-66
2022/04/25 06:01:53;;;;;;;1.17;0.70;;;8.00;99.90;;;;;;5050918;28;20045;-65
2022/04/25 06:04:21;;;;;;;1.02;0.38;;;8.00;99.90;;;;;;5046256;28;20128;-66
2022/04/25 06:06:46;;;;;;;0.77;0.30;;;8.00;99.90;;;;;;5049749;28;20427;-66
2022/04/25 06:09:12;;;;;;;1.13;0.35;;;8.10;99.90;;;;;;5049681;28;20064;-66
2022/04/25 06:11:38;;;;;;;1.20;0.40;;;8.10;99.90;;;;;;5051470;28;20021;-66
2022/04/25 06:14:03;;;;;;;1.15;0.30;;;8.10;99.90;;;;;;5047558;28;20275;-65
2022/04/25 06:16:29;;;;;;;1.17;0.63;;;8.20;99.90;;;;;;5052424;28;20469;-66
2022/04/25 06:18:54;;;;;;;1.05;0.50;;;8.30;99.90;;;;;;5057845;28;20040;-65
2022/04/25 06:21:20;;;;;;;0.60;0.30;;;8.40;99.90;;;;;;5063736;28;20117;-65
2022/04/25 06:23:46;;;;;;;0.73;0.30;;;8.50;99.90;;;;;;5053295;28;20032;-66
2022/04/25 06:26:11;;;;;;;0.80;0.30;;;8.60;99.90;;;;;;5047045;28;20384;-66
2022/04/25 06:28:37;;;;;;;1.65;0.57;;;8.70;99.90;;;;;;5047332;28;20040;-66
2022/04/25 06:31:03;;;;;;;0.63;0.30;;;8.70;99.90;;;;;;5048801;28;20032;-65
2022/04/25 06:33:28;;;;;;;0.80;0.38;;;8.80;99.90;;;;;;5046210;28;20030;-66
2022/04/25 06:35:54;;;;;;;0.75;0.30;;;8.80;99.90;;;;;;5051610;28;20021;-67
2022/04/25 06:38:21;;;;;;;0.80;0.30;;;8.80;99.90;;;;;;5050234;28;20025;-66
2022/04/25 06:40:46;;;;;;;0.50;0.30;;;8.80;99.90;;;;;;5047381;28;20028;-66
2022/04/25 06:43:14;;;;;;;2.60;0.65;;;8.80;99.90;;;;;;5047897;28;20021;-66
2022/04/25 06:45:40;;;;;;;0.82;0.30;;;8.80;99.90;;;;;;5046247;28;20042;-66
2022/04/25 06:48:06;;;;;;;0.73;0.30;;;8.80;99.90;;;;;;5047776;28;20124;-66
2022/04/25 06:50:32;;;;;;;0.88;0.32;;;8.80;99.90;;;;;;5054211;28;21350;-66
2022/04/25 06:52:57;;;;;;;0.90;0.30;;;8.90;99.90;;;;;;5047449;28;20106;-68
2022/04/25 06:55:23;;;;;;;0.57;0.30;;;8.90;99.90;;;;;;5046475;28;20052;-69
2022/04/25 06:57:49;;;;;;;0.85;0.40;;;8.80;99.90;;;;;;5046011;28;20081;-69
2022/04/25 07:00:17;;;;;;;0.52;0.20;;;8.90;99.90;;;;;;5046556;28;20040;-69
2022/04/25 07:02:44;;;;;;;1.05;0.70;;;8.80;99.90;;;;;;5048216;28;20033;-69
2022/04/25 07:05:10;;;;;;;0.50;0.28;;;8.70;99.90;;;;;;5044468;28;20140;-73
2022/04/25 07:07:37;;;;;;;0.30;0.30;;;8.60;99.90;;;;;;5045905;28;20060;-73
2022/04/25 07:10:04;;;;;;;0.75;0.30;;;8.60;99.90;;;;;;5048547;28;20029;-70
2022/04/25 07:12:29;;;;;;;1.13;0.60;;;8.70;99.90;;;;;;5050756;28;21349;-71
2022/04/25 07:14:55;;;;;;;3.75;0.70;;;8.60;99.90;;;;;;5045113;28;20093;-69
2022/04/25 07:17:21;;;;;;;1.23;0.40;;;8.60;99.90;;;;;;5048066;28;20051;-69
2022/04/25 07:19:46;;;;;;;1.20;0.32;;;8.50;99.90;;;;;;5047174;28;20505;-68
2022/04/25 07:30:24;;;;;;;1.33;0.43;;;8.50;99.90;;;;;;5046061;28;20040;-67
2022/04/25 07:32:50;;;;;;;0.40;0.20;;;8.60;99.90;;;;;;5047454;28;20041;-84
2022/04/25 07:35:17;;;;;;;1.00;0.32;;;8.60;99.90;;;;;;5030694;28;20098;-83
2022/04/25 07:37:42;;;;;;;0.80;0.30;;;8.60;99.90;;;;;;5015882;28;20067;-81
2022/04/25 07:40:09;;;;;;;0.68;0.30;;;8.60;99.90;;;;;;5016452;28;20388;-77
2022/04/25 07:42:39;;;;;;;0.88;0.40;;;8.60;99.90;;;;;;5033507;28;20045;-82
2022/04/25 07:45:05;;;;;;;0.57;0.35;;;8.60;99.90;;;;;;5036519;28;20093;-82
2022/04/25 07:47:32;;;;;;;1.10;0.40;;;8.70;99.90;;;;;;5050703;28;20029;-81
2022/04/25 07:49:58;;;;;;;1.23;0.40;;;8.60;99.90;;;;;;5049269;28;20044;-81
2022/04/25 07:52:24;;;;;;;0.50;0.30;;;8.50;99.90;;;;;;5034486;28;20057;-80
2022/04/25 07:54:52;;;;;;;0.90;0.40;;;8.50;99.90;;;;;;5053209;28;20025;-78
2022/04/25 07:57:18;;;;;;;1.55;0.63;;;8.50;99.90;;;;;;5054482;28;20097;-72
2022/04/25 07:59:47;;;;;;;1.17;0.35;;;8.50;99.90;;;;;;5041573;28;20031;-71
2022/04/25 08:02:13;;;;;;;0.95;0.30;;;8.60;99.90;;;;;;5040775;28;20045;-71
2022/04/25 08:04:39;;;;;;;1.17;0.40;;;8.60;99.90;;;;;;5042164;28;20053;-71
2022/04/25 08:07:05;;;;;;;1.02;0.32;;;8.60;99.90;;;;;;5041616;28;20033;-71
2022/04/25 08:09:31;;;;;;;0.98;0.35;;;8.40;99.90;;;;;;5054767;28;20045;-71
2022/04/25 08:20:09;;;;;;;1.02;0.40;;;8.50;99.90;;;;;;5054393;28;20055;-71
2022/04/25 08:22:35;;;;;;;0.80;0.35;;;8.60;99.90;;;;;;5059088;28;20040;-71
2022/04/25 08:25:01;;;;;;;0.90;0.32;;;8.50;99.90;;;;;;5057573;28;20017;-71
2022/04/25 08:27:27;;;;;;;0.95;0.55;;;8.70;99.90;;;;;;5056956;28;20443;-71
2022/04/25 08:29:53;;;;;;;1.13;0.40;;;8.80;99.90;;;;;;5058332;28;20021;-72
2022/04/25 08:32:19;;;;;;;1.15;0.50;;;8.80;99.90;;;;;;5060360;28;20060;-71
2022/04/25 08:34:45;;;;;;;0.98;0.30;;;8.90;99.90;;;;;;5061558;28;20092;-72
2022/04/25 08:37:16;;;;;;;1.15;0.40;;;8.90;99.90;;;;;;5060574;28;20039;-71
2022/04/25 08:39:42;;;;;;;1.08;0.47;;;9.00;99.90;;;;;;5060800;28;20060;-71
2022/04/25 08:42:09;;;;;;;0.68;0.30;;;8.90;99.90;;;;;;5061186;28;20033;-71
2022/04/25 08:44:35;;;;;;;1.00;0.40;;;9.10;99.90;;;;;;5042803;28;20456;-72
2022/04/25 08:47:01;;;;;;;1.10;0.47;;;9.20;99.90;;;;;;5036855;28;20500;-71
2022/04/25 08:49:28;;;;;;;0.85;0.52;;;9.40;99.90;;;;;;5044509;28;20030;-71
2022/04/25 08:51:58;;;;;;;1.67;0.93;;;9.50;99.90;;;;;;5041591;28;20030;-71
2022/04/25 08:54:29;;;;;;;0.52;0.40;;;9.70;99.90;;;;;;5052591;28;20036;-72
2022/04/25 08:56:55;;;;;;;1.13;0.38;;;9.70;99.90;;;;;;5048847;28;20059;-71
2022/04/25 08:59:23;;;;;;;0.90;0.75;;;9.50;99.90;;;;;;5043458;28;20182;-69
2022/04/25 09:01:49;;;;;;;0.88;0.70;;;9.30;99.90;;;;;;5046131;28;20095;-69
2022/04/25 09:04:14;;;;;;;0.90;0.50;;;9.50;99.90;;;;;;5055391;28;20060;-70
2022/04/25 09:06:41;;;;;;;1.08;0.40;;;9.60;99.90;;;;;;5061636;28;20089;-70
2022/04/25 09:09:06;;;;;;;0.85;0.30;;;9.70;99.90;;;;;;5050670;28;20032;-70
2022/04/25 09:14:18;;;;;;;0.55;0.30;;;9.80;99.90;;;;;;5050460;28;20076;-69
2022/04/25 09:16:44;;;;;;;0.63;0.38;;;9.80;99.90;;;;;;5065339;28;20040;-69
2022/04/25 09:19:10;;;;;;;0.85;0.30;;;9.90;99.90;;;;;;5045618;28;20025;-69
2022/04/25 09:21:41;;;;;;;2.13;1.02;;;10.00;99.90;;;;;;5048548;28;20044;-69
2022/04/25 09:24:25;;;;;;;0.80;0.30;;;10.10;99.90;;;;;;5053579;28;20053;-70
2022/04/25 09:27:07;;;;;;;0.30;0.20;;;10.20;99.90;;;;;;5057068;28;20104;-69
2022/04/25 09:29:33;;;;;;;0.60;0.30;;;10.10;99.90;;;;;;5045329;28;20037;-70
2022/04/25 09:31:59;;;;;;;1.00;0.70;;;10.20;99.90;;;;;;5053968;28;20533;-69
2022/04/25 09:37:09;;;;;;;0.40;0.20;;;9.70;99.90;;;;;;5050939;28;20051;-69
2022/04/25 09:39:36;;;;;;;0.77;0.40;;;9.70;99.90;;;;;;5050946;28;20037;-69
2022/04/25 09:42:02;;;;;;;0.80;0.30;;;9.50;99.90;;;;;;5045856;28;20037;-70
2022/04/25 09:44:57;;;;;;;0.32;0.20;;;9.60;99.90;;;;;;5042813;28;20021;-70
2022/04/25 09:47:37;;;;;;;0.25;0.20;;;9.70;99.90;;;;;;5044892;28;20115;-69
2022/04/25 09:50:14;;;;;;;0.52;0.20;;;9.90;99.90;;;;;;5049462;28;20049;-69
2022/04/25 09:53:00;;;;;;;0.63;0.30;;;10.00;99.90;;;;;;5046956;28;20033;-69
2022/04/25 09:55:28;;;;;;;4.90;1.35;;;10.00;99.90;;;;;;5064374;28;20028;-68
2022/04/25 09:57:54;;;;;;;1.00;0.40;;;10.00;99.90;;;;;;5063016;28;20021;-68
2022/04/25 10:00:36;;;;;;;0.65;0.30;;;10.20;99.90;;;;;;5059280;28;20025;-69
2022/04/25 10:03:03;;;;;;;0.82;0.30;;;10.00;99.90;;;;;;5045148;28;20072;-68
2022/04/25 10:05:37;;;;;;;1.42;0.40;;;9.90;99.90;;;;;;5056173;28;20665;-69
2022/04/25 10:08:05;;;;;;;0.77;0.30;;;9.90;99.90;;;;;;5058793;28;20742;-69
2022/04/25 10:10:32;;;;;;;0.77;0.30;;;9.80;99.90;;;;;;5048472;28;20041;-68
2022/04/25 10:12:59;;;;;;;0.65;0.30;;;9.60;99.90;;;;;;5044765;28;20025;-68
2022/04/25 10:15:25;;;;;;;0.52;0.28;;;9.70;99.90;;;;;;5048870;28;20029;-68
2022/04/25 10:17:52;;;;;;;0.68;0.30;;;9.70;99.90;;;;;;5051378;28;20048;-69
2022/04/25 10:20:18;;;;;;;0.43;0.30;;;9.60;99.90;;;;;;5059800;28;20036;-69
2022/04/25 10:22:44;;;;;;;1.27;0.45;;;9.70;99.90;;;;;;5050951;28;20034;-68
2022/04/25 10:25:10;;;;;;;0.77;0.30;;;9.90;99.90;;;;;;5050150;28;20098;-69
2022/04/25 10:27:40;;;;;;;0.60;0.30;;;10.00;99.90;;;;;;5051055;28;20335;-69
2022/04/25 10:30:18;;;;;;;0.75;0.30;;;10.20;99.90;;;;;;5058723;28;20044;-70
2022/04/25 10:32:44;;;;;;;0.40;0.20;;;10.20;99.90;;;;;;5054945;28;20028;-69
2022/04/25 10:35:29;;;;;;;0.35;0.28;;;10.20;99.90;;;;;;5063220;28;20373;-69
2022/04/25 10:37:55;;;;;;;0.75;0.32;;;10.30;99.90;;;;;;5054999;28;20364;-69
2022/04/25 10:46:13;;;;;;;3.40;0.57;;;10.80;99.90;;;;;;5045016;28;20111;-68
2022/04/25 10:49:09;;;;;;;0.45;0.30;;;10.80;99.90;;;;;;5050990;28;20036;-69
2022/04/25 10:51:40;;;;;;;1.20;0.40;;;10.80;99.90;;;;;;5045672;28;20459;-68
2022/04/25 10:54:06;;;;;;;1.05;0.52;;;10.90;99.90;;;;;;5044580;28;20025;-68
2022/04/25 10:56:32;;;;;;;1.90;0.40;;;11.00;99.90;;;;;;5042557;28;20034;-68
2022/04/25 10:59:20;;;;;;;0.98;0.30;;;11.00;99.90;;;;;;5046979;28;20031;-70
2022/04/25 11:01:46;;;;;;;0.93;0.40;;;11.60;99.90;;;;;;5042885;28;20037;-70
2022/04/25 11:04:16;;;;;;;0.38;0.20;;;11.90;99.90;;;;;;5048939;28;20068;-66
2022/04/25 11:06:42;;;;;;;0.90;0.50;;;12.10;99.90;;;;;;5049821;28;20037;-67
2022/04/25 11:09:08;;;;;;;0.80;0.30;;;12.70;99.90;;;;;;5053200;28;20017;-68
2022/04/25 11:11:47;;;;;;;0.50;0.20;;;13.80;99.90;;;;;;5047792;28;20064;-68
2022/04/25 11:14:14;;;;;;;0.80;0.30;;;14.90;99.90;;;;;;5047216;28;20025;-67
2022/04/25 11:16:41;;;;;;;0.50;0.40;;;15.30;99.90;;;;;;5047911;28;20052;-67
2022/04/25 11:19:20;;;;;;;0.47;0.20;;;15.20;99.90;;;;;;5046882;28;20033;-66
2022/04/25 11:21:55;;;;;;;0.75;0.30;;;15.30;99.90;;;;;;5056195;28;20554;-68
2022/04/25 11:24:29;;;;;;;0.85;0.30;;;14.30;99.90;;;;;;5044176;28;20084;-67
2022/04/25 11:26:57;;;;;;;0.40;0.20;;;14.60;99.90;;;;;;5046006;28;20092;-67
2022/04/25 11:29:22;;;;;;;1.23;0.77;;;14.40;99.90;;;;;;5050932;28;20670;-68
2022/04/25 11:31:48;;;;;;;0.60;0.25;;;15.70;99.90;;;;;;5043987;28;20033;-68
2022/04/25 11:34:15;;;;;;;0.17;0.13;;;15.50;99.90;;;;;;5043037;28;20026;-68
2022/04/25 11:36:44;;;;;;;0.80;0.30;;;15.30;99.90;;;;;;5049228;28;20026;-69
2022/04/25 11:41:59;;;;;;;0.40;0.20;;;14.70;99.90;;;;;;5046626;28;20075;-68
2022/04/25 11:44:24;;;;;;;0.90;0.30;;;15.10;99.90;;;;;;5058368;28;20041;-68
2022/04/25 11:46:51;;;;;;;0.57;0.20;;;14.80;99.90;;;;;;5056309;28;20112;-70
2022/04/25 11:49:27;;;;;;;0.22;0.20;;;14.10;99.90;;;;;;5048464;28;20105;-67
2022/04/25 11:51:53;;;;;;;0.22;0.10;;;14.10;99.90;;;;;;5053953;28;20022;-68
2022/04/25 11:54:19;;;;;;;0.20;0.20;;;13.90;99.90;;;;;;5052823;28;20488;-68
2022/04/25 11:56:45;;;;;;;0.43;0.43;;;13.80;99.90;;;;;;5050463;28;20052;-68
2022/04/25 11:59:15;;;;;;;0.55;0.30;;;14.20;99.90;;;;;;5053313;28;20597;-68
2022/04/25 12:01:42;;;;;;;0.98;0.75;;;14.20;99.90;;;;;;5045843;28;20053;-67
2022/04/25 12:04:24;;;;;;;0.57;0.40;;;14.30;99.90;;;;;;5055190;28;20045;-65
2022/04/25 12:06:57;;;;;;;0.98;0.30;;;14.30;99.90;;;;;;5050220;28;20089;-66
2022/04/25 12:17:51;;;;;;;0.63;0.20;;;15.30;99.90;;;;;;5054881;28;20047;-66
2022/04/25 12:20:29;;;;;;;0.13;0.10;;;15.80;99.90;;;;;;5059714;28;20059;-65
2022/04/25 12:22:59;;;;;;;0.25;0.20;;;16.20;99.90;;;;;;5044735;28;20082;-65
2022/04/25 12:25:29;;;;;;;0.43;0.20;;;16.30;99.90;;;;;;5057731;28;20029;-67
2022/04/25 12:28:02;;;;;;;0.77;0.20;;;16.00;99.90;;;;;;5055687;28;20111;-64
2022/04/25 12:30:29;;;;;;;0.35;0.15;;;16.10;99.90;;;;;;5057906;28;20044;-66
2022/04/25 12:33:08;;;;;;;0.17;0.10;;;15.80;99.90;;;;;;5049914;28;20101;-67
2022/04/25 12:35:35;;;;;;;0.35;0.15;;;16.80;99.90;;;;;;5045269;28;20057;-65
2022/04/25 12:38:02;;;;;;;0.47;0.20;;;17.60;99.90;;;;;;5056487;28;20017;-68
2022/04/25 12:40:28;;;;;;;0.60;0.43;;;16.90;99.90;;;;;;5044950;28;20041;-67
2022/04/25 12:42:54;;;;;;;1.20;0.30;;;17.40;99.90;;;;;;5044786;28;20028;-67
2022/04/25 12:45:21;;;;;;;0.10;0.10;;;17.50;99.90;;;;;;5045244;28;20499;-67
2022/04/25 12:47:55;;;;;;;0.63;0.47;;;17.50;99.90;;;;;;5046624;28;20443;-68
2022/04/25 12:50:43;;;;;;;0.93;0.28;;;16.90;94.50;;;;;;5055407;28;20037;-68
2022/04/25 12:53:12;;;;;;;0.38;0.10;;;17.00;97.90;;;;;;5047714;28;20029;-67
2022/04/25 12:55:45;;;;;;;0.50;0.20;;;17.40;99.90;;;;;;5040496;28;20029;-67
2022/04/25 12:58:11;;;;;;;0.47;0.20;;;17.60;99.90;;;;;;5040550;28;20762;-67
2022/04/25 13:00:44;;;;;;;0.68;0.30;;;18.00;96.10;;;;;;5045023;28;20076;-67
2022/04/25 13:03:11;;;;;;;0.10;0.10;;;17.70;99.10;;;;;;5042448;28;20029;-69
2022/04/25 13:05:37;;;;;;;0.08;0.08;;;16.50;98.10;;;;;;5042349;28;20072;-67
2022/04/25 13:08:03;;;;;;;0.38;0.15;;;16.20;99.90;;;;;;5046760;28;20056;-66
2022/04/25 13:10:30;;;;;;;0.68;0.20;;;16.20;99.90;;;;;;5042480;28;20137;-68
2022/04/25 13:12:56;;;;;;;0.55;0.20;;;15.40;99.90;;;;;;5070538;28;20055;-68
2022/04/25 13:15:29;;;;;;;0.28;0.10;;;15.30;99.90;;;;;;5047339;28;20424;-66
2022/04/25 13:17:55;;;;;;;0.70;0.20;;;15.30;99.90;;;;;;5045849;28;20030;-66
2022/04/25 13:20:22;;;;;;;0.47;0.20;;;15.10;99.90;;;;;;5050272;28;20036;-67
2022/04/25 13:22:49;;;;;;;0.40;0.20;;;14.70;99.90;;;;;;5045564;28;20033;-67
2022/04/25 13:25:16;;;;;;;1.02;0.30;;;14.50;99.90;;;;;;5049451;28;20034;-66
2022/04/25 13:27:43;;;;;;;0.93;0.20;;;14.40;99.90;;;;;;5047083;28;20098;-65
2022/04/25 13:30:12;;;;;;;0.60;0.40;;;14.30;99.90;;;;;;5050176;28;20067;-64
2022/04/25 13:32:38;;;;;;;0.45;0.20;;;13.90;99.90;;;;;;5048497;28;20029;-66
2022/04/25 13:35:05;;;;;;;0.70;0.30;;;13.50;99.90;;;;;;5043265;28;20033;-66
2022/04/25 13:37:32;;;;;;;0.20;0.10;;;13.60;99.90;;;;;;5049149;28;20029;-66
2022/04/25 13:39:58;;;;;;;0.47;0.20;;;13.80;99.90;;;;;;5043743;28;20035;-65
2022/04/25 13:42:25;;;;;;;0.63;0.20;;;13.80;99.90;;;;;;5047924;28;20049;-65
2022/04/25 13:44:50;;;;;;;1.08;0.30;;;13.70;99.90;;;;;;5049310;28;20084;-67
2022/04/25 13:47:17;;;;;;;0.50;0.47;;;13.40;99.90;;;;;;5047872;28;20042;-66
2022/04/25 13:49:43;;;;;;;0.55;0.20;;;13.20;99.90;;;;;;5039682;28;20089;-66